Huvudsida
METAR-TAF:

METAR-TAF

Flygplatser :

Riyadh, Saudiarabien

latitud: 24-56N, longitud: 046-43E, höjd: 614 m

Aktuellt väderrapport

Denna rapport gjordes för 40 minuter sedan, klockan 22:00 UTC
Vind 3 kt från syd/sydost
Temperatur 17°C
Fuktighet 63%
Tryck 1016 hPa
Sikt 10 km eller mer
Inga moln under 1 500 m eller inga cumulonimbus

METAR: OERK 152200Z 15003KT CAVOK 17/10 Q1016 NOSIG

Tid: 01:40 (22:40 UTC)

Väderprognos

Denna rapport gjordes för 5 timmar och 40 minuter sedan, klockan 17:00 UTC
Prognos gäller från 15 kl. 18 UTC till 16 kl. 24 UTC
Vind 12 kt från ost/nordost
Sikt: 6000 m
Få moln på en höjd av 4000 ft
Spridda moln på en höjd av 8000 ft
Temporärt
från 15 kl. 18 UTC till 16 kl. 06 UTC
Spridda moln på en höjd av 4000 ft
Blir
från 16 kl. 04 UTC till 16 kl. 06 UTC
Vind 8 kt från syd

TAF: OERK 151700Z 1518/1624 07012KT 6000 FEW040 SCT080 TEMPO 1518/1606 SCT040 BECMG 1604/1606 18008KT

Aktuella väderrapporter och prognoser från 4000 flygplatser (METAR- och TAF-rapporter).

De tillgängliga stationerna syns som gula och röda prickar på kartan.

För musen över prickarna för att se namnen på stationerna.

Klicka sedan för att få väderrapporter och prognoser.

För att ändra kartan: Klicka på de gröna knapparna med ett svart kors på för att zooma in; den gröna knappen med ett streck på för att zooma ut; eller på de gröna pilarna för angränsande kartor.


METAR-TAF: